Independence, CA

12:08 AM PDT on October 23, 2014 (GMT -0700)
Mammoth Yosemite | Change Station
CLOSE
Current Station
Airport
Location: Mammoth,
Elevation: 7129 ft
Nearby Weather Stations

Elev 7129 ft 37.62 °N, 118.84 °W | Updated 13 minutes ago

Clear
Clear
36 °F
Feels Like 36 °F
N
0
Wind Variable Wind from North

Today
High -- | Low -- °F
--% Chance of Precip.
Yesterday
High -- | Low -- °F
Precip. -- in
7:08 AM 6:05 PM
Waning Crescent, 0% visible
Pressure 30.25 in
Visibility 10.0 miles
Clouds Clear
Dew Point 16 °F
Humidity 44%
Rainfall 0.00 in
Snow Depth Not available.
UV 0 out of 12
Pollen 2.70 out of 12
Air Quality Not available.
Flu Activity Sporadic
METAR KMMH 230655Z AUTO 00000KT 10SM CLR 02/M09 A3025 RMK AO1

More Conditions Fewer Conditions

Pressure 30.25 in
Visibility 10.0 miles
Clouds Clear
Dew Point 16 °F
Humidity 44%
Rainfall 0.00 in
Snow Depth Not available.
UV 0 out of 12
Pollen 2.70 out of 12
Air Quality Not available.
Flu Activity Sporadic
METAR KMMH 230655Z AUTO 00000KT 10SM CLR 02/M09 A3025 RMK AO1

More Conditions Fewer Conditions

10-Day Weather Forecast

Almanac

Astronomy

Oct. 23, 2014 Rise Set
Actual Time 7:08 AM PDT 6:05 PM PDT
Civil Twilight 6:41 AM PDT 6:32 PM PDT
Nautical Twilight 6:11 AM PDT 7:02 PM PDT
Astronomical Twilight 5:41 AM PDT 7:32 PM PDT
Moon 6:52 AM PDT 6:10 PM PDT
Length of Visible Light 11h 50m
Length of Day
10h 57m
Tomorrow will be 2m 10s shorter.
Waning Crescent, 0% of the Moon is Illuminated
Today
Waning Crescent
Oct 23
New
Oct 30
First Quarter
Nov 6
Full
Nov 14
Last Quarter

Community

WunderPhotos

Upload Photos

1,764,194 photos uploaded!

Nearby

Snow Depth

Station Depth Elevation
Virginia Lakes Ridge 0 in 9200 ft
Leavitt Meadows 0 in 7200 ft
Sonora Pass 0 in 8800 ft
Summit Meadow 1 in 9122 ft
Poison Flat 0 in 7900 ft

Earthquake Activity

City Distance Mag. Time & Date
Kettleman City, California 109 miles 2.5 9:08 AM PDT
2014-10-22
Warm Springs, Nevada 140 miles 3.0 1:08 PM PDT
2014-10-21
Mammoth Lakes, California 53 miles 3.0 11:10 PM PDT
2014-10-20
Minimum magnitude displayed is 2.5.

Coastal Water Temperatures

Place Temperature
No Stations Reporting

Nearby Weather Stations